createdAt,value
2022-09-24T00:02:21.177Z,5.37
2022-09-24T00:04:53.572Z,4.50
2022-09-24T00:07:23.348Z,5.00
2022-09-24T00:09:55.163Z,5.97
2022-09-24T00:12:26.624Z,7.10
2022-09-24T00:14:58.194Z,5.20
2022-09-24T00:17:27.922Z,5.57
2022-09-24T00:22:29.265Z,6.05
2022-09-24T00:25:19.039Z,4.30
2022-09-24T00:27:48.293Z,4.87
2022-09-24T00:30:20.857Z,5.65
2022-09-24T00:33:12.875Z,4.90
2022-09-24T00:35:45.027Z,5.25
2022-09-24T00:38:16.165Z,4.18
2022-09-24T00:40:47.742Z,4.20
2022-09-24T00:43:36.229Z,4.77
2022-09-24T00:46:33.864Z,7.87
2022-09-24T00:49:15.559Z,5.00
2022-09-24T00:51:53.513Z,4.12
2022-09-24T00:54:27.406Z,4.40
2022-09-24T00:57:01.074Z,5.12
2022-09-24T00:59:31.687Z,3.97
2022-09-24T01:02:03.816Z,5.20
2022-09-24T01:04:33.341Z,4.82
2022-09-24T01:07:03.910Z,5.70
2022-09-24T01:09:32.789Z,5.72
2022-09-24T01:12:29.003Z,5.40
2022-09-24T01:15:12.658Z,5.43
2022-09-24T01:17:49.199Z,4.90
2022-09-24T01:20:48.534Z,4.37
2022-09-24T01:23:31.424Z,3.87
2022-09-24T01:26:19.976Z,3.65
2022-09-24T01:29:17.712Z,3.75
2022-09-24T01:31:51.526Z,4.90
2022-09-24T01:34:27.937Z,4.70
2022-09-24T01:37:00.075Z,5.70
2022-09-24T01:39:32.964Z,4.72
2022-09-24T01:42:04.018Z,6.77
2022-09-24T01:44:38.277Z,4.60
2022-09-24T01:47:10.261Z,4.45
2022-09-24T01:49:43.095Z,5.18
2022-09-24T01:52:17.706Z,6.82
2022-09-24T01:54:52.926Z,7.57
2022-09-24T01:57:27.201Z,8.10
2022-09-24T02:00:19.639Z,4.62
2022-09-24T02:03:14.091Z,5.50
2022-09-24T02:05:53.058Z,5.03
2022-09-24T02:08:25.001Z,5.03
2022-09-24T02:11:09.097Z,6.43
2022-09-24T02:13:57.216Z,4.57
2022-09-24T02:16:34.017Z,5.07
2022-09-24T02:19:06.890Z,4.75
2022-09-24T02:21:39.876Z,5.10
2022-09-24T02:24:13.037Z,6.28
2022-09-24T02:26:44.789Z,5.05
2022-09-24T02:29:14.776Z,5.00
2022-09-24T02:31:50.242Z,5.57
2022-09-24T02:34:24.030Z,5.82
2022-09-24T02:37:07.079Z,5.87
2022-09-24T02:39:36.772Z,5.00
2022-09-24T02:42:11.164Z,5.32
2022-09-24T02:44:41.584Z,9.02
2022-09-24T02:49:41.611Z,5.68
2022-09-24T02:52:14.297Z,6.45
2022-09-24T02:54:43.703Z,5.80
2022-09-24T02:57:14.225Z,6.80
2022-09-24T02:59:43.401Z,6.37
2022-09-24T03:02:15.716Z,7.18
2022-09-24T03:04:45.269Z,6.22
2022-09-24T03:07:16.403Z,5.75
2022-09-24T03:09:46.608Z,5.32
2022-09-24T03:12:19.585Z,5.18
2022-09-24T03:14:50.089Z,6.45
2022-09-24T03:17:21.370Z,5.87
2022-09-24T03:19:51.190Z,5.00
2022-09-24T03:22:22.301Z,4.97
2022-09-24T03:24:51.800Z,5.97
2022-09-24T03:27:22.305Z,6.55
2022-09-24T03:30:10.197Z,5.75
2022-09-24T03:32:42.184Z,5.30
2022-09-24T03:37:48.367Z,5.90
2022-09-24T03:40:18.447Z,5.75
2022-09-24T03:42:50.162Z,19.48
2022-09-24T03:45:20.990Z,5.65
2022-09-24T03:47:53.580Z,5.57
2022-09-24T03:50:24.237Z,5.68
2022-09-24T03:52:56.162Z,5.57
2022-09-24T03:55:25.201Z,4.47
2022-09-24T03:57:56.315Z,4.78
2022-09-24T04:00:25.604Z,3.85
2022-09-24T04:02:55.915Z,4.78
2022-09-24T04:05:26.323Z,6.12
2022-09-24T04:07:59.478Z,5.15
2022-09-24T04:10:30.028Z,8.48
2022-09-24T04:13:02.093Z,5.65
2022-09-24T04:15:33.247Z,5.65
2022-09-24T04:18:04.226Z,8.88
2022-09-24T04:20:36.043Z,4.60
2022-09-24T04:23:05.631Z,5.82
2022-09-24T04:25:35.085Z,6.95
2022-09-24T04:28:07.507Z,5.35
2022-09-24T04:30:37.417Z,5.25
2022-09-24T04:33:09.499Z,5.78
2022-09-24T04:35:39.188Z,10.35
2022-09-24T04:38:09.693Z,9.82
2022-09-24T04:40:40.744Z,12.02
2022-09-24T04:43:13.203Z,12.37
2022-09-24T04:45:45.954Z,7.65
2022-09-24T04:48:17.951Z,6.37
2022-09-24T04:50:46.700Z,6.10
2022-09-24T04:53:16.730Z,7.68
2022-09-24T04:55:47.975Z,5.93
2022-09-24T04:58:21.668Z,6.68
2022-09-24T05:00:53.955Z,7.45
2022-09-24T05:03:23.595Z,6.93
2022-09-24T05:05:56.240Z,6.28
2022-09-24T05:08:25.983Z,6.07
2022-09-24T05:10:56.681Z,7.40
2022-09-24T05:13:29.024Z,5.25
2022-09-24T05:16:01.511Z,7.03
2022-09-24T05:18:31.360Z,5.40
2022-09-24T05:21:05.205Z,7.20
2022-09-24T05:23:34.056Z,7.78
2022-09-24T05:26:22.441Z,7.18
2022-09-24T05:28:53.594Z,6.47
2022-09-24T05:31:25.250Z,7.20
2022-09-24T05:33:56.961Z,7.40
2022-09-24T05:36:29.649Z,6.90
2022-09-24T05:39:00.315Z,6.53
2022-09-24T05:41:33.047Z,6.32
2022-09-24T05:44:08.000Z,5.72
2022-09-24T05:46:39.480Z,7.45
2022-09-24T05:49:11.722Z,5.55
2022-09-24T05:51:43.925Z,6.95
2022-09-24T05:54:13.257Z,7.45
2022-09-24T05:56:47.641Z,6.43
2022-09-24T05:59:16.510Z,9.80
2022-09-24T06:01:45.889Z,9.68
2022-09-24T06:04:18.723Z,9.98
2022-09-24T06:06:48.495Z,8.18
2022-09-24T06:09:19.342Z,8.05
2022-09-24T06:11:52.945Z,8.13
2022-09-24T06:14:23.828Z,10.07
2022-09-24T06:16:53.797Z,9.73
2022-09-24T06:19:25.345Z,7.75
2022-09-24T06:21:55.361Z,7.80
2022-09-24T06:24:24.324Z,9.70
2022-09-24T06:26:53.353Z,8.57
2022-09-24T06:29:22.248Z,8.60
2022-09-24T06:31:54.339Z,8.40
2022-09-24T06:34:28.041Z,10.60
2022-09-24T06:37:02.399Z,9.20
2022-09-24T06:39:31.888Z,10.00
2022-09-24T06:42:03.858Z,10.10
2022-09-24T06:44:37.303Z,9.38
2022-09-24T06:47:07.521Z,10.30
2022-09-24T06:49:36.708Z,11.60
2022-09-24T06:52:06.569Z,9.40
2022-09-24T06:54:37.393Z,11.18
2022-09-24T06:57:08.288Z,10.50
2022-09-24T06:59:38.526Z,11.05
2022-09-24T07:02:10.572Z,10.55
2022-09-24T07:04:41.646Z,10.50
2022-09-24T07:07:29.904Z,13.70
2022-09-24T07:10:05.786Z,12.25
2022-09-24T07:12:37.595Z,13.80
2022-09-24T07:15:10.378Z,11.88
2022-09-24T07:17:39.517Z,12.88
2022-09-24T07:20:09.950Z,14.48
2022-09-24T07:22:41.544Z,14.80
2022-09-24T07:25:12.939Z,13.50
2022-09-24T07:27:43.170Z,14.00
2022-09-24T07:30:13.511Z,14.10
2022-09-24T07:32:44.502Z,15.23
2022-09-24T07:35:15.092Z,12.65
2022-09-24T07:37:45.798Z,18.00
2022-09-24T07:40:15.190Z,14.35
2022-09-24T07:42:49.679Z,17.42
2022-09-24T07:45:29.146Z,16.30
2022-09-24T07:48:03.094Z,16.65
2022-09-24T07:50:35.354Z,16.20
2022-09-24T07:53:06.881Z,16.05
2022-09-24T07:55:41.465Z,16.10
2022-09-24T07:58:15.757Z,16.33
2022-09-24T08:00:48.434Z,17.40
2022-09-24T08:03:20.715Z,19.05
2022-09-24T08:05:51.385Z,17.10
2022-09-24T08:08:22.991Z,16.00
2022-09-24T08:10:51.938Z,17.80
2022-09-24T08:13:27.756Z,17.33
2022-09-24T08:16:02.213Z,17.87
2022-09-24T08:18:33.427Z,17.77
2022-09-24T08:21:07.195Z,17.30
2022-09-24T08:23:42.303Z,18.30
2022-09-24T08:26:11.974Z,17.37
2022-09-24T08:28:44.727Z,18.08
2022-09-24T08:31:15.167Z,12.65
2022-09-24T08:33:51.468Z,12.57
2022-09-24T08:36:21.222Z,12.43
2022-09-24T08:38:55.623Z,14.18
2022-09-24T08:41:44.433Z,11.73
2022-09-24T08:44:48.062Z,15.45
2022-09-24T08:47:46.164Z,11.98
2022-09-24T08:50:24.164Z,13.38
2022-09-24T08:53:14.031Z,10.60
2022-09-24T08:58:25.507Z,9.73
2022-09-24T09:01:16.161Z,10.80
2022-09-24T09:03:57.510Z,10.88
2022-09-24T09:06:54.824Z,11.18
2022-09-24T09:09:44.952Z,10.73
2022-09-24T09:12:23.714Z,11.48
2022-09-24T09:15:04.568Z,14.50
2022-09-24T09:17:51.425Z,12.37
2022-09-24T09:20:21.800Z,12.40
2022-09-24T09:22:53.471Z,10.50
2022-09-24T09:25:30.519Z,11.05
2022-09-24T09:28:03.975Z,10.80
2022-09-24T09:30:44.163Z,14.13
2022-09-24T09:33:42.210Z,11.93
2022-09-24T09:36:33.977Z,11.65
2022-09-24T09:42:23.780Z,10.73
2022-09-24T09:44:56.694Z,9.52
2022-09-24T09:47:31.555Z,7.75
2022-09-24T09:50:09.474Z,8.07
2022-09-24T09:52:42.780Z,7.72
2022-09-24T09:55:28.880Z,11.77
2022-09-24T09:58:17.846Z,7.15
2022-09-24T10:00:50.009Z,9.05
2022-09-24T10:03:44.790Z,7.25
2022-09-24T10:06:27.504Z,9.65
2022-09-24T10:09:17.902Z,7.25
2022-09-24T10:11:48.503Z,6.00
2022-09-24T10:14:38.629Z,7.47
2022-09-24T10:17:11.233Z,6.90
2022-09-24T10:19:41.243Z,6.70
2022-09-24T10:22:22.595Z,6.10
2022-09-24T10:24:57.022Z,4.80
2022-09-24T10:27:33.612Z,5.28
2022-09-24T10:30:34.740Z,6.68
2022-09-24T10:33:06.598Z,4.35
2022-09-24T10:35:39.836Z,4.22
2022-09-24T10:38:25.717Z,7.82
2022-09-24T10:40:58.312Z,6.05
2022-09-24T10:43:28.650Z,4.87
2022-09-24T10:46:10.298Z,3.90
2022-09-24T10:48:46.751Z,8.55
2022-09-24T10:51:53.033Z,5.68
2022-09-24T10:54:28.636Z,4.87
2022-09-24T10:57:26.445Z,7.43
2022-09-24T11:00:10.028Z,5.18
2022-09-24T11:03:00.330Z,6.35
2022-09-24T11:05:39.144Z,5.57
2022-09-24T11:08:23.232Z,4.55
2022-09-24T11:11:10.174Z,6.05
2022-09-24T11:13:57.286Z,4.95
2022-09-24T11:16:49.776Z,9.70
2022-09-24T11:19:19.777Z,3.85
2022-09-24T11:22:11.087Z,5.43
2022-09-24T11:25:04.020Z,3.42
2022-09-24T11:28:06.138Z,5.25
2022-09-24T11:31:03.125Z,5.20
2022-09-24T11:33:54.184Z,5.03
2022-09-24T11:36:48.430Z,5.87
2022-09-24T11:39:29.815Z,5.53
2022-09-24T11:42:07.633Z,4.68
2022-09-24T11:44:37.120Z,6.18
2022-09-24T11:47:12.485Z,7.33
2022-09-24T11:49:57.910Z,3.35
2022-09-24T11:52:41.367Z,5.07
2022-09-24T11:55:27.129Z,4.03
2022-09-24T11:58:17.018Z,4.32
2022-09-24T12:00:59.427Z,5.60
2022-09-24T12:03:42.523Z,4.30
2022-09-24T12:06:34.155Z,4.18
2022-09-24T12:09:37.779Z,4.15
2022-09-24T12:12:21.779Z,5.60
2022-09-24T12:15:06.224Z,3.60
2022-09-24T12:17:41.592Z,3.62
2022-09-24T12:20:20.272Z,4.60
2022-09-24T12:22:50.294Z,6.62
2022-09-24T12:25:20.157Z,5.32
2022-09-24T12:27:49.022Z,4.43
2022-09-24T12:30:57.727Z,4.03
2022-09-24T12:33:33.487Z,3.83
2022-09-24T12:36:34.808Z,5.53
2022-09-24T12:39:07.685Z,6.12
2022-09-24T12:41:37.448Z,4.80
2022-09-24T12:44:10.229Z,5.80
2022-09-24T12:46:46.475Z,5.72
2022-09-24T12:49:27.664Z,3.37
2022-09-24T12:54:28.566Z,3.20
2022-09-24T12:57:07.348Z,3.53
2022-09-24T12:59:50.662Z,4.40
2022-09-24T13:02:24.041Z,7.28
2022-09-24T13:05:13.852Z,6.62
2022-09-24T13:07:42.056Z,4.65
2022-09-24T13:10:18.741Z,13.57
2022-09-24T13:12:47.684Z,5.53
2022-09-24T13:15:28.603Z,3.42
2022-09-24T13:18:03.076Z,5.07
2022-09-24T13:20:34.360Z,3.30
2022-09-24T13:23:32.273Z,3.87
2022-09-24T13:26:05.457Z,3.85
2022-09-24T13:28:52.462Z,4.03
2022-09-24T13:31:21.572Z,6.55
2022-09-24T13:33:52.821Z,4.47
2022-09-24T13:36:33.541Z,6.93
2022-09-24T13:39:30.960Z,6.50
2022-09-24T13:42:16.077Z,3.65
2022-09-24T13:44:47.889Z,3.90
2022-09-24T13:47:32.079Z,6.20
2022-09-24T13:50:23.794Z,3.87
2022-09-24T13:53:07.719Z,6.03
2022-09-24T13:55:47.279Z,5.25
2022-09-24T13:58:33.177Z,3.97
2022-09-24T14:01:25.208Z,4.87
2022-09-24T14:04:00.542Z,5.10
2022-09-24T14:06:37.694Z,3.45
2022-09-24T14:09:25.028Z,3.78
2022-09-24T14:11:56.849Z,5.60
2022-09-24T14:14:28.184Z,4.55
2022-09-24T14:17:09.877Z,6.82
2022-09-24T14:19:39.566Z,5.18
2022-09-24T14:22:15.463Z,3.90
2022-09-24T14:25:06.598Z,3.75
2022-09-24T14:27:40.159Z,7.53
2022-09-24T14:30:17.464Z,4.78
2022-09-24T14:32:45.665Z,4.80
2022-09-24T14:35:23.050Z,4.72
2022-09-24T14:37:55.150Z,6.57
2022-09-24T14:40:23.982Z,7.65
2022-09-24T14:43:00.504Z,5.78
2022-09-24T14:45:34.950Z,6.12
2022-09-24T14:48:18.388Z,5.43
2022-09-24T14:50:47.823Z,5.72
2022-09-24T14:53:34.254Z,4.40
2022-09-24T14:56:28.327Z,4.53
2022-09-24T14:59:00.700Z,5.20
2022-09-24T15:01:33.664Z,4.90
2022-09-24T15:04:08.424Z,4.65
2022-09-24T15:06:37.847Z,3.10
2022-09-24T15:09:31.592Z,7.43
2022-09-24T15:12:10.735Z,5.32
2022-09-24T15:14:39.847Z,6.60
2022-09-24T15:17:11.039Z,6.30
2022-09-24T15:19:43.189Z,6.20
2022-09-24T15:22:12.282Z,4.80
2022-09-24T15:24:40.163Z,4.47
2022-09-24T15:27:19.924Z,4.55
2022-09-24T15:29:48.179Z,5.95
2022-09-24T15:32:18.264Z,5.80
2022-09-24T15:34:47.378Z,5.23
2022-09-24T15:37:19.782Z,6.15
2022-09-24T15:39:49.304Z,7.15
2022-09-24T15:42:24.148Z,6.75
2022-09-24T15:44:54.805Z,7.65
2022-09-24T15:47:23.707Z,5.37
2022-09-24T15:49:51.887Z,8.32
2022-09-24T15:52:32.160Z,6.30
2022-09-24T15:55:02.289Z,6.93
2022-09-24T15:57:30.627Z,5.55
2022-09-24T15:59:58.839Z,6.85
2022-09-24T16:02:32.172Z,7.45
2022-09-24T16:05:04.217Z,6.15
2022-09-24T16:07:33.261Z,5.28
2022-09-24T16:10:01.765Z,6.07
2022-09-24T16:12:30.267Z,10.32
2022-09-24T16:15:00.806Z,7.30
2022-09-24T16:17:29.387Z,5.72
2022-09-24T16:19:58.578Z,5.65
2022-09-24T16:22:26.661Z,6.47
2022-09-24T16:24:54.821Z,5.72
2022-09-24T16:27:23.191Z,8.68
2022-09-24T16:29:51.942Z,7.53
2022-09-24T16:32:19.941Z,5.35
2022-09-24T16:34:48.732Z,5.80
2022-09-24T16:37:18.475Z,7.65
2022-09-24T16:39:46.460Z,6.32
2022-09-24T16:42:14.703Z,6.93
2022-09-24T16:44:43.078Z,8.90
2022-09-24T16:47:11.737Z,9.52
2022-09-24T16:49:39.847Z,9.02
2022-09-24T16:52:07.678Z,11.25
2022-09-24T16:54:36.979Z,10.57
2022-09-24T16:57:09.014Z,8.07
2022-09-24T16:59:37.884Z,7.82
2022-09-24T17:02:05.961Z,10.90
2022-09-24T17:04:34.591Z,7.82
2022-09-24T17:07:03.818Z,7.57
2022-09-24T17:09:50.318Z,7.60
2022-09-24T17:12:19.411Z,8.60
2022-09-24T17:14:46.981Z,7.43
2022-09-24T17:17:15.034Z,8.82
2022-09-24T17:19:45.455Z,10.32
2022-09-24T17:22:13.173Z,11.43
2022-09-24T17:24:41.271Z,7.78
2022-09-24T17:27:09.477Z,7.90
2022-09-24T17:29:38.151Z,9.20
2022-09-24T17:32:06.446Z,9.75
2022-09-24T17:34:35.993Z,8.25
2022-09-24T17:37:04.194Z,8.93
2022-09-24T17:39:32.620Z,13.57
2022-09-24T17:42:02.611Z,9.75
2022-09-24T17:44:30.826Z,12.18
2022-09-24T17:47:00.799Z,10.50
2022-09-24T17:49:29.517Z,15.45
2022-09-24T17:52:01.564Z,16.95
2022-09-24T17:54:29.619Z,17.12
2022-09-24T17:56:58.422Z,16.45
2022-09-24T17:59:27.151Z,15.65
2022-09-24T18:01:56.275Z,16.10
2022-09-24T18:04:27.442Z,16.83
2022-09-24T18:06:55.614Z,15.93
2022-09-24T18:09:24.203Z,15.35
2022-09-24T18:11:52.828Z,14.05
2022-09-24T18:14:22.875Z,13.57
2022-09-24T18:16:51.787Z,15.48
2022-09-24T18:19:20.520Z,12.43
2022-09-24T18:21:51.115Z,18.30
2022-09-24T18:24:20.195Z,13.95
2022-09-24T18:26:51.499Z,13.30
2022-09-24T18:29:21.189Z,11.12
2022-09-24T18:31:51.788Z,13.50
2022-09-24T18:34:20.281Z,16.15
2022-09-24T18:36:48.285Z,14.60
2022-09-24T18:39:21.931Z,14.07
2022-09-24T18:41:53.319Z,18.62
2022-09-24T18:44:22.121Z,16.42
2022-09-24T18:46:51.173Z,14.02
2022-09-24T18:49:20.036Z,15.85
2022-09-24T18:51:49.142Z,13.55
2022-09-24T18:54:18.404Z,13.93
2022-09-24T18:56:48.288Z,18.00
2022-09-24T18:59:20.056Z,17.90
2022-09-24T19:01:50.841Z,18.02
2022-09-24T19:04:19.591Z,20.33
2022-09-24T19:06:48.675Z,20.37
2022-09-24T19:09:18.958Z,20.30
2022-09-24T19:11:48.884Z,18.10
2022-09-24T19:14:18.537Z,19.42
2022-09-24T19:16:47.441Z,18.40
2022-09-24T19:19:16.373Z,16.52
2022-09-24T19:21:45.738Z,18.23
2022-09-24T19:24:13.295Z,15.52
2022-09-24T19:26:41.200Z,18.40
2022-09-24T19:29:10.086Z,19.33
2022-09-24T19:31:41.835Z,16.75
2022-09-24T19:34:13.004Z,15.60
2022-09-24T19:36:45.030Z,19.08
2022-09-24T19:39:16.369Z,17.08
2022-09-24T19:41:45.093Z,15.55
2022-09-24T19:44:16.772Z,15.73
2022-09-24T19:46:45.543Z,15.80
2022-09-24T19:49:15.206Z,15.65
2022-09-24T19:51:43.631Z,15.65
2022-09-24T19:54:12.923Z,17.37
2022-09-24T19:56:41.606Z,19.15
2022-09-24T19:59:10.007Z,14.75
2022-09-24T20:01:38.362Z,16.55
2022-09-24T20:04:07.685Z,13.45
2022-09-24T20:06:37.115Z,16.20
2022-09-24T20:09:05.526Z,16.10
2022-09-24T20:11:35.490Z,14.63
2022-09-24T20:14:06.263Z,13.32
2022-09-24T20:16:35.484Z,14.45
2022-09-24T20:19:05.284Z,12.77
2022-09-24T20:21:39.279Z,13.50
2022-09-24T20:24:12.699Z,18.08
2022-09-24T20:27:01.935Z,16.10
2022-09-24T20:29:31.610Z,17.42
2022-09-24T20:32:01.428Z,18.35
2022-09-24T20:34:34.254Z,15.82
2022-09-24T20:37:06.156Z,16.15
2022-09-24T20:39:35.122Z,16.87
2022-09-24T20:42:06.202Z,16.30
2022-09-24T20:44:35.541Z,16.20
2022-09-24T20:47:04.229Z,12.32
2022-09-24T20:49:33.370Z,15.07
2022-09-24T20:52:03.327Z,14.93
2022-09-24T20:54:33.714Z,16.17
2022-09-24T20:57:01.984Z,17.40
2022-09-24T20:59:30.928Z,18.15
2022-09-24T21:02:04.251Z,16.15
2022-09-24T21:04:36.847Z,19.45
2022-09-24T21:07:05.707Z,14.82
2022-09-24T21:09:34.032Z,15.52
2022-09-24T21:12:03.723Z,17.20
2022-09-24T21:14:35.561Z,14.75
2022-09-24T21:17:03.672Z,15.95
2022-09-24T21:19:35.741Z,21.85
2022-09-24T21:22:03.513Z,15.88
2022-09-24T21:24:32.130Z,15.02
2022-09-24T21:27:00.160Z,12.55
2022-09-24T21:29:27.856Z,13.88
2022-09-24T21:31:55.943Z,13.25
2022-09-24T21:34:24.263Z,19.35
2022-09-24T21:36:53.242Z,15.23
2022-09-24T21:39:24.338Z,13.43
2022-09-24T21:41:59.564Z,11.12
2022-09-24T21:44:34.194Z,13.25
2022-09-24T21:47:01.927Z,12.77
2022-09-24T21:49:33.691Z,14.50
2022-09-24T21:52:05.044Z,14.63
2022-09-24T21:54:34.096Z,11.50
2022-09-24T21:57:02.425Z,12.73
2022-09-24T21:59:50.159Z,16.33
2022-09-24T22:02:20.340Z,13.07
2022-09-24T22:04:51.000Z,13.82
2022-09-24T22:07:19.484Z,13.50
2022-09-24T22:09:50.192Z,14.02
2022-09-24T22:14:53.278Z,9.98
2022-09-24T22:17:26.401Z,10.90
2022-09-24T22:19:58.110Z,11.10
2022-09-24T22:22:28.511Z,13.43
2022-09-24T22:25:01.113Z,12.57
2022-09-24T22:27:32.211Z,12.70
2022-09-24T22:30:03.239Z,13.90
2022-09-24T22:32:38.192Z,12.00
2022-09-24T22:35:29.928Z,12.00
2022-09-24T22:38:01.042Z,11.75
2022-09-24T22:40:31.045Z,11.95
2022-09-24T22:43:05.444Z,11.88
2022-09-24T22:45:35.810Z,10.25
2022-09-24T22:48:07.943Z,10.88
2022-09-24T22:50:39.123Z,12.57
2022-09-24T22:53:10.557Z,10.05
2022-09-24T22:55:40.141Z,11.45
2022-09-24T22:58:13.953Z,11.38
2022-09-24T23:00:44.419Z,11.10
2022-09-24T23:03:15.015Z,10.65
2022-09-24T23:05:46.322Z,9.75
2022-09-24T23:08:18.169Z,12.23
2022-09-24T23:10:48.069Z,13.27
2022-09-24T23:13:21.082Z,9.45
2022-09-24T23:15:55.376Z,13.20
2022-09-24T23:18:27.961Z,7.70
2022-09-24T23:20:58.315Z,9.93
2022-09-24T23:23:28.685Z,11.10
2022-09-24T23:26:14.250Z,10.65
2022-09-24T23:28:53.608Z,10.30
2022-09-24T23:31:29.736Z,9.73
2022-09-24T23:34:02.150Z,12.25
2022-09-24T23:36:34.194Z,11.10
2022-09-24T23:39:06.407Z,10.98
2022-09-24T23:41:37.789Z,12.00
2022-09-24T23:44:11.944Z,11.43
2022-09-24T23:46:42.106Z,9.48
2022-09-24T23:51:44.817Z,10.57
2022-09-24T23:54:16.471Z,9.57
2022-09-24T23:56:46.617Z,9.30
2022-09-24T23:59:18.913Z,11.77
